sensor_id;sensor_type;location;lat;lon;timestamp;P1;durP1;ratioP1;P2;durP2;ratioP2
62990;SDS011;49084;48.204;16.202;2023-06-10T00:01:28;7.82;;;5.35;;
62990;SDS011;49084;48.204;16.202;2023-06-10T00:03:55;7.57;;;4.95;;
62990;SDS011;49084;48.204;16.202;2023-06-10T00:06:22;6.75;;;4.78;;
62990;SDS011;49084;48.204;16.202;2023-06-10T00:08:49;8.85;;;4.95;;
62990;SDS011;49084;48.204;16.202;2023-06-10T00:11:15;5.72;;;4.97;;
62990;SDS011;49084;48.204;16.202;2023-06-10T00:13:41;6.68;;;4.82;;
62990;SDS011;49084;48.204;16.202;2023-06-10T00:16:06;6.20;;;4.82;;
62990;SDS011;49084;48.204;16.202;2023-06-10T00:18:32;5.63;;;5.00;;
62990;SDS011;49084;48.204;16.202;2023-06-10T00:20:58;6.05;;;4.95;;
62990;SDS011;49084;48.204;16.202;2023-06-10T00:23:29;7.28;;;4.95;;
62990;SDS011;49084;48.204;16.202;2023-06-10T00:26:02;6.35;;;4.55;;
62990;SDS011;49084;48.204;16.202;2023-06-10T00:28:28;5.28;;;4.60;;
62990;SDS011;49084;48.204;16.202;2023-06-10T00:30:53;4.55;;;4.07;;
62990;SDS011;49084;48.204;16.202;2023-06-10T00:33:19;6.28;;;4.50;;
62990;SDS011;49084;48.204;16.202;2023-06-10T00:35:46;6.18;;;4.40;;
62990;SDS011;49084;48.204;16.202;2023-06-10T00:38:13;6.35;;;5.45;;
62990;SDS011;49084;48.204;16.202;2023-06-10T00:40:40;5.90;;;4.93;;
62990;SDS011;49084;48.204;16.202;2023-06-10T00:43:06;9.10;;;5.28;;
62990;SDS011;49084;48.204;16.202;2023-06-10T00:45:32;11.43;;;5.00;;
62990;SDS011;49084;48.204;16.202;2023-06-10T00:47:58;5.68;;;4.55;;
62990;SDS011;49084;48.204;16.202;2023-06-10T00:50:25;7.43;;;5.10;;
62990;SDS011;49084;48.204;16.202;2023-06-10T00:52:50;7.95;;;4.90;;
62990;SDS011;49084;48.204;16.202;2023-06-10T00:55:17;7.72;;;5.07;;
62990;SDS011;49084;48.204;16.202;2023-06-10T00:57:44;6.95;;;4.72;;
62990;SDS011;49084;48.204;16.202;2023-06-10T01:00:11;4.95;;;4.45;;
62990;SDS011;49084;48.204;16.202;2023-06-10T01:02:38;8.40;;;4.82;;
62990;SDS011;49084;48.204;16.202;2023-06-10T01:05:04;7.55;;;4.65;;
62990;SDS011;49084;48.204;16.202;2023-06-10T01:12:36;6.82;;;4.03;;
62990;SDS011;49084;48.204;16.202;2023-06-10T01:15:20;6.25;;;4.75;;
62990;SDS011;49084;48.204;16.202;2023-06-10T01:17:57;5.18;;;4.68;;
62990;SDS011;49084;48.204;16.202;2023-06-10T01:20:28;6.55;;;4.72;;
62990;SDS011;49084;48.204;16.202;2023-06-10T01:22:55;10.38;;;4.22;;
62990;SDS011;49084;48.204;16.202;2023-06-10T01:25:22;6.70;;;4.70;;
62990;SDS011;49084;48.204;16.202;2023-06-10T01:27:53;6.40;;;4.45;;
62990;SDS011;49084;48.204;16.202;2023-06-10T01:30:37;6.25;;;4.47;;
62990;SDS011;49084;48.204;16.202;2023-06-10T01:33:09;5.07;;;4.28;;
62990;SDS011;49084;48.204;16.202;2023-06-10T01:35:36;9.32;;;4.28;;
62990;SDS011;49084;48.204;16.202;2023-06-10T01:38:04;5.80;;;3.73;;
62990;SDS011;49084;48.204;16.202;2023-06-10T01:40:31;5.45;;;4.57;;
62990;SDS011;49084;48.204;16.202;2023-06-10T01:42:58;5.47;;;4.00;;
62990;SDS011;49084;48.204;16.202;2023-06-10T01:45:23;4.13;;;3.72;;
62990;SDS011;49084;48.204;16.202;2023-06-10T01:47:49;5.53;;;4.32;;
62990;SDS011;49084;48.204;16.202;2023-06-10T01:50:14;4.53;;;4.13;;
62990;SDS011;49084;48.204;16.202;2023-06-10T01:52:41;5.80;;;3.72;;
62990;SDS011;49084;48.204;16.202;2023-06-10T01:55:07;6.18;;;4.05;;
62990;SDS011;49084;48.204;16.202;2023-06-10T01:57:33;7.18;;;4.50;;
62990;SDS011;49084;48.204;16.202;2023-06-10T01:59:58;5.88;;;4.05;;
62990;SDS011;49084;48.204;16.202;2023-06-10T02:02:24;4.72;;;3.80;;
62990;SDS011;49084;48.204;16.202;2023-06-10T02:04:50;8.00;;;4.82;;
62990;SDS011;49084;48.204;16.202;2023-06-10T02:07:15;4.20;;;3.80;;
62990;SDS011;49084;48.204;16.202;2023-06-10T02:09:41;4.68;;;4.20;;
62990;SDS011;49084;48.204;16.202;2023-06-10T02:12:07;4.63;;;3.92;;
62990;SDS011;49084;48.204;16.202;2023-06-10T02:14:33;9.93;;;4.68;;
62990;SDS011;49084;48.204;16.202;2023-06-10T02:16:58;5.07;;;4.22;;
62990;SDS011;49084;48.204;16.202;2023-06-10T02:19:25;5.38;;;4.43;;
62990;SDS011;49084;48.204;16.202;2023-06-10T02:21:52;6.80;;;4.53;;
62990;SDS011;49084;48.204;16.202;2023-06-10T02:24:18;5.15;;;3.88;;
62990;SDS011;49084;48.204;16.202;2023-06-10T02:26:43;6.47;;;4.55;;
62990;SDS011;49084;48.204;16.202;2023-06-10T02:29:10;5.78;;;4.22;;
62990;SDS011;49084;48.204;16.202;2023-06-10T02:31:36;5.80;;;4.07;;
62990;SDS011;49084;48.204;16.202;2023-06-10T02:34:02;4.53;;;4.13;;
62990;SDS011;49084;48.204;16.202;2023-06-10T02:36:28;4.57;;;4.18;;
62990;SDS011;49084;48.204;16.202;2023-06-10T02:38:54;5.32;;;4.32;;
62990;SDS011;49084;48.204;16.202;2023-06-10T02:41:20;4.57;;;4.03;;
62990;SDS011;49084;48.204;16.202;2023-06-10T02:43:46;7.47;;;3.97;;
62990;SDS011;49084;48.204;16.202;2023-06-10T02:46:12;5.57;;;4.15;;
62990;SDS011;49084;48.204;16.202;2023-06-10T02:48:41;6.57;;;4.53;;
62990;SDS011;49084;48.204;16.202;2023-06-10T02:51:11;5.93;;;4.35;;
62990;SDS011;49084;48.204;16.202;2023-06-10T02:53:37;4.82;;;4.43;;
62990;SDS011;49084;48.204;16.202;2023-06-10T02:56:02;5.60;;;4.95;;
62990;SDS011;49084;48.204;16.202;2023-06-10T02:58:28;6.53;;;4.43;;
62990;SDS011;49084;48.204;16.202;2023-06-10T03:00:54;6.43;;;4.47;;
62990;SDS011;49084;48.204;16.202;2023-06-10T03:03:20;5.72;;;4.47;;
62990;SDS011;49084;48.204;16.202;2023-06-10T03:05:47;6.82;;;4.38;;
62990;SDS011;49084;48.204;16.202;2023-06-10T03:08:13;5.55;;;4.60;;
62990;SDS011;49084;48.204;16.202;2023-06-10T03:10:39;5.53;;;4.57;;
62990;SDS011;49084;48.204;16.202;2023-06-10T03:13:05;6.18;;;4.70;;
62990;SDS011;49084;48.204;16.202;2023-06-10T03:15:30;7.80;;;5.40;;
62990;SDS011;49084;48.204;16.202;2023-06-10T03:17:58;5.78;;;5.00;;
62990;SDS011;49084;48.204;16.202;2023-06-10T03:20:27;9.98;;;4.78;;
62990;SDS011;49084;48.204;16.202;2023-06-10T03:22:53;7.95;;;5.00;;
62990;SDS011;49084;48.204;16.202;2023-06-10T03:25:19;5.80;;;4.40;;
62990;SDS011;49084;48.204;16.202;2023-06-10T03:27:45;5.32;;;4.50;;
62990;SDS011;49084;48.204;16.202;2023-06-10T03:30:12;4.95;;;4.40;;
62990;SDS011;49084;48.204;16.202;2023-06-10T03:32:38;7.57;;;4.85;;
62990;SDS011;49084;48.204;16.202;2023-06-10T03:35:06;5.80;;;4.53;;
62990;SDS011;49084;48.204;16.202;2023-06-10T03:37:32;6.20;;;4.88;;
62990;SDS011;49084;48.204;16.202;2023-06-10T03:39:58;10.70;;;4.40;;
62990;SDS011;49084;48.204;16.202;2023-06-10T03:42:23;8.15;;;5.00;;
62990;SDS011;49084;48.204;16.202;2023-06-10T03:44:49;6.75;;;4.82;;
62990;SDS011;49084;48.204;16.202;2023-06-10T03:47:14;11.85;;;5.57;;
62990;SDS011;49084;48.204;16.202;2023-06-10T03:49:41;6.70;;;5.45;;
62990;SDS011;49084;48.204;16.202;2023-06-10T03:52:06;7.85;;;5.72;;
62990;SDS011;49084;48.204;16.202;2023-06-10T03:54:32;6.20;;;4.70;;
62990;SDS011;49084;48.204;16.202;2023-06-10T03:56:59;8.65;;;4.75;;
62990;SDS011;49084;48.204;16.202;2023-06-10T03:59:25;7.03;;;4.70;;
62990;SDS011;49084;48.204;16.202;2023-06-10T04:01:51;4.80;;;4.32;;
62990;SDS011;49084;48.204;16.202;2023-06-10T04:04:17;6.30;;;4.90;;
62990;SDS011;49084;48.204;16.202;2023-06-10T04:06:42;6.30;;;5.25;;
62990;SDS011;49084;48.204;16.202;2023-06-10T04:09:09;5.63;;;4.70;;
62990;SDS011;49084;48.204;16.202;2023-06-10T04:11:35;10.18;;;6.18;;
62990;SDS011;49084;48.204;16.202;2023-06-10T04:14:01;5.53;;;5.03;;
62990;SDS011;49084;48.204;16.202;2023-06-10T04:16:27;5.40;;;4.85;;
62990;SDS011;49084;48.204;16.202;2023-06-10T04:18:53;7.70;;;5.07;;
62990;SDS011;49084;48.204;16.202;2023-06-10T04:21:18;7.07;;;5.60;;
62990;SDS011;49084;48.204;16.202;2023-06-10T04:23:44;6.53;;;4.68;;
62990;SDS011;49084;48.204;16.202;2023-06-10T04:26:10;5.95;;;5.15;;
62990;SDS011;49084;48.204;16.202;2023-06-10T04:28:37;5.88;;;4.60;;
62990;SDS011;49084;48.204;16.202;2023-06-10T04:31:03;8.02;;;5.00;;
62990;SDS011;49084;48.204;16.202;2023-06-10T04:33:29;9.32;;;5.28;;
62990;SDS011;49084;48.204;16.202;2023-06-10T04:35:55;9.98;;;6.22;;
62990;SDS011;49084;48.204;16.202;2023-06-10T04:38:21;5.45;;;4.95;;
62990;SDS011;49084;48.204;16.202;2023-06-10T04:40:46;10.63;;;5.50;;
62990;SDS011;49084;48.204;16.202;2023-06-10T04:43:13;8.00;;;5.75;;
62990;SDS011;49084;48.204;16.202;2023-06-10T04:45:38;9.80;;;6.00;;
62990;SDS011;49084;48.204;16.202;2023-06-10T04:48:04;9.25;;;6.38;;
62990;SDS011;49084;48.204;16.202;2023-06-10T04:50:30;8.93;;;6.32;;
62990;SDS011;49084;48.204;16.202;2023-06-10T04:52:58;9.52;;;6.90;;
62990;SDS011;49084;48.204;16.202;2023-06-10T04:55:23;9.95;;;6.75;;
62990;SDS011;49084;48.204;16.202;2023-06-10T04:57:50;11.00;;;6.63;;
62990;SDS011;49084;48.204;16.202;2023-06-10T05:00:16;9.07;;;6.93;;
62990;SDS011;49084;48.204;16.202;2023-06-10T05:02:42;10.05;;;8.10;;
62990;SDS011;49084;48.204;16.202;2023-06-10T05:05:08;11.60;;;8.88;;
62990;SDS011;49084;48.204;16.202;2023-06-10T05:07:34;12.15;;;9.55;;
62990;SDS011;49084;48.204;16.202;2023-06-10T05:09:59;17.67;;;10.85;;
62990;SDS011;49084;48.204;16.202;2023-06-10T05:12:25;14.60;;;10.43;;
62990;SDS011;49084;48.204;16.202;2023-06-10T05:14:51;14.15;;;10.77;;
62990;SDS011;49084;48.204;16.202;2023-06-10T05:17:17;10.90;;;9.50;;
62990;SDS011;49084;48.204;16.202;2023-06-10T05:19:42;11.88;;;10.07;;
62990;SDS011;49084;48.204;16.202;2023-06-10T05:22:09;12.30;;;9.00;;
62990;SDS011;49084;48.204;16.202;2023-06-10T05:24:34;12.77;;;9.90;;
62990;SDS011;49084;48.204;16.202;2023-06-10T05:27:00;12.35;;;10.20;;
62990;SDS011;49084;48.204;16.202;2023-06-10T05:29:26;12.20;;;10.15;;
62990;SDS011;49084;48.204;16.202;2023-06-10T05:31:52;11.40;;;10.00;;
62990;SDS011;49084;48.204;16.202;2023-06-10T05:34:17;17.58;;;11.80;;
62990;SDS011;49084;48.204;16.202;2023-06-10T05:36:43;13.80;;;10.68;;
62990;SDS011;49084;48.204;16.202;2023-06-10T05:39:09;16.88;;;13.25;;
62990;SDS011;49084;48.204;16.202;2023-06-10T05:41:35;16.42;;;13.32;;
62990;SDS011;49084;48.204;16.202;2023-06-10T05:44:01;23.30;;;15.25;;
62990;SDS011;49084;48.204;16.202;2023-06-10T05:46:26;18.05;;;12.95;;
62990;SDS011;49084;48.204;16.202;2023-06-10T05:48:52;21.00;;;15.10;;
62990;SDS011;49084;48.204;16.202;2023-06-10T05:51:18;23.50;;;15.57;;
62990;SDS011;49084;48.204;16.202;2023-06-10T05:53:43;20.40;;;15.15;;
62990;SDS011;49084;48.204;16.202;2023-06-10T05:56:11;21.55;;;15.32;;
62990;SDS011;49084;48.204;16.202;2023-06-10T05:58:37;34.15;;;16.05;;
62990;SDS011;49084;48.204;16.202;2023-06-10T06:01:03;20.20;;;14.65;;
62990;SDS011;49084;48.204;16.202;2023-06-10T06:03:29;21.95;;;15.25;;
62990;SDS011;49084;48.204;16.202;2023-06-10T06:05:54;19.98;;;15.15;;
62990;SDS011;49084;48.204;16.202;2023-06-10T06:08:20;18.05;;;14.25;;
62990;SDS011;49084;48.204;16.202;2023-06-10T06:10:46;18.33;;;14.10;;
62990;SDS011;49084;48.204;16.202;2023-06-10T06:13:12;19.83;;;13.60;;
62990;SDS011;49084;48.204;16.202;2023-06-10T06:15:38;20.85;;;14.77;;
62990;SDS011;49084;48.204;16.202;2023-06-10T06:18:04;20.63;;;14.52;;
62990;SDS011;49084;48.204;16.202;2023-06-10T06:20:30;23.67;;;15.90;;
62990;SDS011;49084;48.204;16.202;2023-06-10T06:22:55;23.08;;;16.30;;
62990;SDS011;49084;48.204;16.202;2023-06-10T06:25:21;22.42;;;15.63;;
62990;SDS011;49084;48.204;16.202;2023-06-10T06:27:46;25.40;;;16.75;;
62990;SDS011;49084;48.204;16.202;2023-06-10T06:30:12;21.67;;;15.45;;
62990;SDS011;49084;48.204;16.202;2023-06-10T06:32:38;23.00;;;16.02;;
62990;SDS011;49084;48.204;16.202;2023-06-10T06:35:03;22.30;;;15.90;;
62990;SDS011;49084;48.204;16.202;2023-06-10T06:39:58;25.23;;;16.40;;
62990;SDS011;49084;48.204;16.202;2023-06-10T06:42:24;23.65;;;16.27;;
62990;SDS011;49084;48.204;16.202;2023-06-10T06:44:50;21.85;;;16.15;;
62990;SDS011;49084;48.204;16.202;2023-06-10T06:47:15;25.08;;;17.38;;
62990;SDS011;49084;48.204;16.202;2023-06-10T06:49:44;27.13;;;18.65;;
62990;SDS011;49084;48.204;16.202;2023-06-10T06:52:11;28.80;;;19.35;;
62990;SDS011;49084;48.204;16.202;2023-06-10T06:54:37;29.52;;;19.30;;
62990;SDS011;49084;48.204;16.202;2023-06-10T06:57:02;27.70;;;17.50;;
62990;SDS011;49084;48.204;16.202;2023-06-10T06:59:28;29.58;;;18.58;;
62990;SDS011;49084;48.204;16.202;2023-06-10T07:01:54;30.60;;;18.50;;
62990;SDS011;49084;48.204;16.202;2023-06-10T07:04:20;29.45;;;19.67;;
62990;SDS011;49084;48.204;16.202;2023-06-10T07:06:47;28.00;;;18.58;;
62990;SDS011;49084;48.204;16.202;2023-06-10T07:09:13;29.27;;;19.48;;
62990;SDS011;49084;48.204;16.202;2023-06-10T07:11:38;30.60;;;18.67;;
62990;SDS011;49084;48.204;16.202;2023-06-10T07:14:04;28.55;;;18.83;;
62990;SDS011;49084;48.204;16.202;2023-06-10T07:16:30;30.02;;;19.05;;
62990;SDS011;49084;48.204;16.202;2023-06-10T07:18:55;25.95;;;18.80;;
62990;SDS011;49084;48.204;16.202;2023-06-10T07:21:21;30.05;;;19.17;;
62990;SDS011;49084;48.204;16.202;2023-06-10T07:23:48;24.88;;;18.35;;
62990;SDS011;49084;48.204;16.202;2023-06-10T07:26:14;25.30;;;17.95;;
62990;SDS011;49084;48.204;16.202;2023-06-10T07:28:42;25.08;;;17.77;;
62990;SDS011;49084;48.204;16.202;2023-06-10T07:31:08;28.85;;;17.67;;
62990;SDS011;49084;48.204;16.202;2023-06-10T07:33:34;25.88;;;17.20;;
62990;SDS011;49084;48.204;16.202;2023-06-10T07:36:00;27.73;;;18.67;;
62990;SDS011;49084;48.204;16.202;2023-06-10T07:38:26;27.42;;;17.67;;
62990;SDS011;49084;48.204;16.202;2023-06-10T07:40:52;25.42;;;18.27;;
62990;SDS011;49084;48.204;16.202;2023-06-10T07:43:17;26.58;;;17.92;;
62990;SDS011;49084;48.204;16.202;2023-06-10T07:45:43;26.08;;;18.85;;
62990;SDS011;49084;48.204;16.202;2023-06-10T07:48:09;27.58;;;18.90;;
62990;SDS011;49084;48.204;16.202;2023-06-10T07:50:35;24.63;;;18.23;;
62990;SDS011;49084;48.204;16.202;2023-06-10T07:53:01;26.85;;;19.25;;
62990;SDS011;49084;48.204;16.202;2023-06-10T07:55:26;28.40;;;18.38;;
62990;SDS011;49084;48.204;16.202;2023-06-10T07:57:52;27.95;;;19.17;;
62990;SDS011;49084;48.204;16.202;2023-06-10T08:00:19;89.95;;;27.20;;
62990;SDS011;49084;48.204;16.202;2023-06-10T08:02:45;28.98;;;18.52;;
62990;SDS011;49084;48.204;16.202;2023-06-10T08:05:11;24.15;;;18.35;;
62990;SDS011;49084;48.204;16.202;2023-06-10T08:07:37;26.27;;;18.38;;
62990;SDS011;49084;48.204;16.202;2023-06-10T08:10:04;23.83;;;18.10;;
62990;SDS011;49084;48.204;16.202;2023-06-10T08:12:30;26.55;;;17.40;;
62990;SDS011;49084;48.204;16.202;2023-06-10T08:14:56;24.42;;;16.95;;
62990;SDS011;49084;48.204;16.202;2023-06-10T08:17:22;24.83;;;18.45;;
62990;SDS011;49084;48.204;16.202;2023-06-10T08:19:48;27.58;;;17.70;;
62990;SDS011;49084;48.204;16.202;2023-06-10T08:22:14;23.00;;;16.63;;
62990;SDS011;49084;48.204;16.202;2023-06-10T08:24:40;22.30;;;15.82;;
62990;SDS011;49084;48.204;16.202;2023-06-10T08:27:05;21.33;;;15.77;;
62990;SDS011;49084;48.204;16.202;2023-06-10T08:29:31;19.88;;;15.32;;
62990;SDS011;49084;48.204;16.202;2023-06-10T08:31:57;18.23;;;15.20;;
62990;SDS011;49084;48.204;16.202;2023-06-10T08:34:23;22.70;;;15.07;;
62990;SDS011;49084;48.204;16.202;2023-06-10T08:36:49;16.23;;;13.98;;
62990;SDS011;49084;48.204;16.202;2023-06-10T08:39:18;18.90;;;13.95;;
62990;SDS011;49084;48.204;16.202;2023-06-10T08:41:47;19.92;;;13.82;;
62990;SDS011;49084;48.204;16.202;2023-06-10T08:44:27;15.45;;;13.10;;
62990;SDS011;49084;48.204;16.202;2023-06-10T08:46:55;21.00;;;13.52;;
62990;SDS011;49084;48.204;16.202;2023-06-10T08:49:23;18.73;;;15.13;;
62990;SDS011;49084;48.204;16.202;2023-06-10T08:51:56;20.02;;;14.00;;
62990;SDS011;49084;48.204;16.202;2023-06-10T08:54:25;16.70;;;13.77;;
62990;SDS011;49084;48.204;16.202;2023-06-10T08:56:55;17.17;;;13.65;;
62990;SDS011;49084;48.204;16.202;2023-06-10T08:59:22;20.52;;;14.13;;
62990;SDS011;49084;48.204;16.202;2023-06-10T09:01:50;17.17;;;14.45;;
62990;SDS011;49084;48.204;16.202;2023-06-10T09:04:16;18.48;;;13.65;;
62990;SDS011;49084;48.204;16.202;2023-06-10T09:06:43;19.10;;;13.82;;
62990;SDS011;49084;48.204;16.202;2023-06-10T09:09:09;14.82;;;13.15;;
62990;SDS011;49084;48.204;16.202;2023-06-10T09:11:42;17.88;;;13.63;;
62990;SDS011;49084;48.204;16.202;2023-06-10T09:14:08;16.70;;;13.27;;
62990;SDS011;49084;48.204;16.202;2023-06-10T09:16:34;19.02;;;13.52;;
62990;SDS011;49084;48.204;16.202;2023-06-10T09:19:00;14.55;;;12.85;;
62990;SDS011;49084;48.204;16.202;2023-06-10T09:21:32;16.38;;;12.63;;
62990;SDS011;49084;48.204;16.202;2023-06-10T09:23:58;17.52;;;12.88;;
62990;SDS011;49084;48.204;16.202;2023-06-10T09:26:27;20.02;;;13.48;;
62990;SDS011;49084;48.204;16.202;2023-06-10T09:28:57;14.07;;;12.18;;
62990;SDS011;49084;48.204;16.202;2023-06-10T09:31:28;14.88;;;11.77;;
62990;SDS011;49084;48.204;16.202;2023-06-10T09:33:55;13.85;;;11.43;;
62990;SDS011;49084;48.204;16.202;2023-06-10T09:36:30;13.20;;;11.80;;
62990;SDS011;49084;48.204;16.202;2023-06-10T09:38:57;15.98;;;12.55;;
62990;SDS011;49084;48.204;16.202;2023-06-10T09:41:31;17.83;;;12.45;;
62990;SDS011;49084;48.204;16.202;2023-06-10T09:43:57;14.18;;;11.65;;
62990;SDS011;49084;48.204;16.202;2023-06-10T09:46:23;15.02;;;11.98;;
62990;SDS011;49084;48.204;16.202;2023-06-10T09:48:49;16.63;;;11.45;;
62990;SDS011;49084;48.204;16.202;2023-06-10T09:51:15;15.40;;;11.18;;
62990;SDS011;49084;48.204;16.202;2023-06-10T09:53:47;12.93;;;11.63;;
62990;SDS011;49084;48.204;16.202;2023-06-10T09:56:16;13.45;;;11.35;;
62990;SDS011;49084;48.204;16.202;2023-06-10T09:58:42;11.70;;;10.60;;
62990;SDS011;49084;48.204;16.202;2023-06-10T10:01:11;11.52;;;10.32;;
62990;SDS011;49084;48.204;16.202;2023-06-10T10:03:46;12.25;;;10.98;;
62990;SDS011;49084;48.204;16.202;2023-06-10T10:06:13;12.48;;;10.85;;
62990;SDS011;49084;48.204;16.202;2023-06-10T10:08:41;12.02;;;10.73;;
62990;SDS011;49084;48.204;16.202;2023-06-10T10:11:08;14.35;;;11.68;;
62990;SDS011;49084;48.204;16.202;2023-06-10T10:13:34;14.48;;;11.63;;
62990;SDS011;49084;48.204;16.202;2023-06-10T10:16:11;13.13;;;11.57;;
62990;SDS011;49084;48.204;16.202;2023-06-10T10:18:42;13.38;;;11.98;;
62990;SDS011;49084;48.204;16.202;2023-06-10T10:21:13;12.95;;;10.73;;
62990;SDS011;49084;48.204;16.202;2023-06-10T10:26:51;17.48;;;10.95;;
62990;SDS011;49084;48.204;16.202;2023-06-10T10:29:24;13.73;;;11.32;;
62990;SDS011;49084;48.204;16.202;2023-06-10T10:31:52;13.63;;;10.73;;
62990;SDS011;49084;48.204;16.202;2023-06-10T10:37:08;12.77;;;11.25;;
62990;SDS011;49084;48.204;16.202;2023-06-10T10:39:34;12.48;;;11.05;;
62990;SDS011;49084;48.204;16.202;2023-06-10T10:42:01;12.52;;;11.20;;
62990;SDS011;49084;48.204;16.202;2023-06-10T10:44:29;12.73;;;11.07;;
62990;SDS011;49084;48.204;16.202;2023-06-10T10:46:56;13.02;;;11.30;;
62990;SDS011;49084;48.204;16.202;2023-06-10T10:49:27;12.65;;;10.88;;
62990;SDS011;49084;48.204;16.202;2023-06-10T10:54:32;13.40;;;11.43;;
62990;SDS011;49084;48.204;16.202;2023-06-10T10:59:46;12.73;;;10.95;;
62990;SDS011;49084;48.204;16.202;2023-06-10T11:05:02;15.48;;;10.63;;
62990;SDS011;49084;48.204;16.202;2023-06-10T11:07:29;13.00;;;9.93;;
62990;SDS011;49084;48.204;16.202;2023-06-10T11:10:04;11.43;;;9.98;;
62990;SDS011;49084;48.204;16.202;2023-06-10T11:15:10;10.57;;;9.57;;
62990;SDS011;49084;48.204;16.202;2023-06-10T11:18:28;10.73;;;9.50;;
62990;SDS011;49084;48.204;16.202;2023-06-10T11:33:52;11.50;;;9.68;;
62990;SDS011;49084;48.204;16.202;2023-06-10T11:36:18;12.82;;;9.27;;
62990;SDS011;49084;48.204;16.202;2023-06-10T11:38:44;12.65;;;9.70;;
62990;SDS011;49084;48.204;16.202;2023-06-10T11:41:13;11.95;;;9.05;;
62990;SDS011;49084;48.204;16.202;2023-06-10T11:43:42;11.63;;;9.38;;
62990;SDS011;49084;48.204;16.202;2023-06-10T11:46:11;10.57;;;9.48;;
62990;SDS011;49084;48.204;16.202;2023-06-10T11:48:38;10.25;;;9.10;;
62990;SDS011;49084;48.204;16.202;2023-06-10T11:51:07;11.48;;;9.43;;
62990;SDS011;49084;48.204;16.202;2023-06-10T11:53:33;10.25;;;9.20;;
62990;SDS011;49084;48.204;16.202;2023-06-10T11:55:59;9.82;;;8.88;;
62990;SDS011;49084;48.204;16.202;2023-06-10T11:58:24;10.75;;;8.80;;
62990;SDS011;49084;48.204;16.202;2023-06-10T12:00:54;9.77;;;8.10;;
62990;SDS011;49084;48.204;16.202;2023-06-10T12:03:23;10.55;;;8.55;;
62990;SDS011;49084;48.204;16.202;2023-06-10T12:06:00;9.40;;;8.35;;
62990;SDS011;49084;48.204;16.202;2023-06-10T12:08:28;9.02;;;8.20;;
62990;SDS011;49084;48.204;16.202;2023-06-10T12:10:54;9.52;;;8.10;;
62990;SDS011;49084;48.204;16.202;2023-06-10T12:13:21;9.77;;;8.75;;
62990;SDS011;49084;48.204;16.202;2023-06-10T12:15:48;9.45;;;8.43;;
62990;SDS011;49084;48.204;16.202;2023-06-10T12:20:44;8.30;;;7.50;;
62990;SDS011;49084;48.204;16.202;2023-06-10T12:23:10;8.35;;;7.28;;
62990;SDS011;49084;48.204;16.202;2023-06-10T12:25:36;8.60;;;7.13;;
62990;SDS011;49084;48.204;16.202;2023-06-10T12:28:03;12.43;;;7.03;;
62990;SDS011;49084;48.204;16.202;2023-06-10T12:30:29;7.07;;;6.50;;
62990;SDS011;49084;48.204;16.202;2023-06-10T12:32:56;8.38;;;6.90;;
62990;SDS011;49084;48.204;16.202;2023-06-10T12:35:22;7.43;;;6.60;;
62990;SDS011;49084;48.204;16.202;2023-06-10T12:40:30;7.57;;;6.82;;
62990;SDS011;49084;48.204;16.202;2023-06-10T12:42:57;7.78;;;7.07;;
62990;SDS011;49084;48.204;16.202;2023-06-10T12:45:27;9.88;;;7.15;;
62990;SDS011;49084;48.204;16.202;2023-06-10T12:48:09;7.82;;;6.78;;
62990;SDS011;49084;48.204;16.202;2023-06-10T12:50:41;9.60;;;7.13;;
62990;SDS011;49084;48.204;16.202;2023-06-10T12:53:08;7.70;;;7.00;;
62990;SDS011;49084;48.204;16.202;2023-06-10T12:55:36;7.93;;;6.63;;
62990;SDS011;49084;48.204;16.202;2023-06-10T12:58:02;7.63;;;6.93;;
62990;SDS011;49084;48.204;16.202;2023-06-10T13:00:28;7.65;;;6.78;;
62990;SDS011;49084;48.204;16.202;2023-06-10T13:02:59;7.20;;;6.40;;
62990;SDS011;49084;48.204;16.202;2023-06-10T13:05:26;8.18;;;7.32;;
62990;SDS011;49084;48.204;16.202;2023-06-10T13:07:53;8.50;;;7.53;;
62990;SDS011;49084;48.204;16.202;2023-06-10T13:10:20;8.85;;;7.95;;
62990;SDS011;49084;48.204;16.202;2023-06-10T13:12:46;9.00;;;7.45;;
62990;SDS011;49084;48.204;16.202;2023-06-10T13:15:12;12.82;;;7.88;;
62990;SDS011;49084;48.204;16.202;2023-06-10T13:17:38;8.13;;;7.32;;
62990;SDS011;49084;48.204;16.202;2023-06-10T13:20:05;7.97;;;7.13;;
62990;SDS011;49084;48.204;16.202;2023-06-10T13:22:32;7.07;;;6.38;;
62990;SDS011;49084;48.204;16.202;2023-06-10T13:25:00;8.23;;;6.57;;
62990;SDS011;49084;48.204;16.202;2023-06-10T13:27:26;7.50;;;6.40;;
62990;SDS011;49084;48.204;16.202;2023-06-10T13:29:52;9.05;;;6.93;;
62990;SDS011;49084;48.204;16.202;2023-06-10T13:32:18;6.80;;;6.20;;
62990;SDS011;49084;48.204;16.202;2023-06-10T13:34:44;8.00;;;7.18;;
62990;SDS011;49084;48.204;16.202;2023-06-10T13:37:10;8.95;;;6.95;;
62990;SDS011;49084;48.204;16.202;2023-06-10T13:39:37;7.32;;;6.63;;
62990;SDS011;49084;48.204;16.202;2023-06-10T13:42:03;8.18;;;6.95;;
62990;SDS011;49084;48.204;16.202;2023-06-10T13:44:29;7.30;;;6.55;;
62990;SDS011;49084;48.204;16.202;2023-06-10T13:49:24;6.75;;;6.15;;
62990;SDS011;49084;48.204;16.202;2023-06-10T13:51:50;6.30;;;5.80;;
62990;SDS011;49084;48.204;16.202;2023-06-10T13:54:15;7.25;;;5.88;;
62990;SDS011;49084;48.204;16.202;2023-06-10T13:56:41;8.13;;;6.10;;
62990;SDS011;49084;48.204;16.202;2023-06-10T13:59:07;6.57;;;5.88;;
62990;SDS011;49084;48.204;16.202;2023-06-10T14:01:33;6.50;;;5.90;;
62990;SDS011;49084;48.204;16.202;2023-06-10T14:03:59;7.13;;;5.80;;
62990;SDS011;49084;48.204;16.202;2023-06-10T14:06:25;7.38;;;6.05;;
62990;SDS011;49084;48.204;16.202;2023-06-10T14:08:51;6.53;;;5.93;;
62990;SDS011;49084;48.204;16.202;2023-06-10T14:11:17;6.63;;;5.68;;
62990;SDS011;49084;48.204;16.202;2023-06-10T14:13:42;6.45;;;5.95;;
62990;SDS011;49084;48.204;16.202;2023-06-10T14:16:08;7.05;;;6.13;;
62990;SDS011;49084;48.204;16.202;2023-06-10T14:18:33;6.88;;;6.28;;
62990;SDS011;49084;48.204;16.202;2023-06-10T14:20:59;6.50;;;5.80;;
62990;SDS011;49084;48.204;16.202;2023-06-10T14:23:24;7.53;;;6.43;;
62990;SDS011;49084;48.204;16.202;2023-06-10T14:25:51;6.57;;;6.05;;
62990;SDS011;49084;48.204;16.202;2023-06-10T14:28:16;6.95;;;6.35;;
62990;SDS011;49084;48.204;16.202;2023-06-10T14:30:42;7.10;;;6.28;;
62990;SDS011;49084;48.204;16.202;2023-06-10T14:33:08;7.53;;;6.47;;
62990;SDS011;49084;48.204;16.202;2023-06-10T14:35:33;7.75;;;6.75;;
62990;SDS011;49084;48.204;16.202;2023-06-10T14:37:59;9.70;;;6.75;;
62990;SDS011;49084;48.204;16.202;2023-06-10T14:40:25;6.90;;;6.32;;
62990;SDS011;49084;48.204;16.202;2023-06-10T14:42:53;8.10;;;7.30;;
62990;SDS011;49084;48.204;16.202;2023-06-10T14:45:19;10.40;;;7.35;;
62990;SDS011;49084;48.204;16.202;2023-06-10T14:47:45;9.75;;;7.13;;
62990;SDS011;49084;48.204;16.202;2023-06-10T14:50:12;8.55;;;7.57;;
62990;SDS011;49084;48.204;16.202;2023-06-10T14:52:38;13.30;;;7.38;;
62990;SDS011;49084;48.204;16.202;2023-06-10T14:55:03;7.78;;;6.95;;
62990;SDS011;49084;48.204;16.202;2023-06-10T14:57:30;8.18;;;6.47;;
62990;SDS011;49084;48.204;16.202;2023-06-10T14:59:55;7.95;;;7.25;;
62990;SDS011;49084;48.204;16.202;2023-06-10T15:02:21;7.38;;;6.78;;
62990;SDS011;49084;48.204;16.202;2023-06-10T15:04:47;8.55;;;7.75;;
62990;SDS011;49084;48.204;16.202;2023-06-10T15:07:13;8.27;;;7.47;;